Latest Weather Observations for Alice Springs Airport

IDD60801

Issued at 2:01 pm CST Tuesday 3 May 2016 (issued every 30 minutes, with the page automatically refreshed every 10 minutes)

About weather observations | Map of weather stations | Latest weather observations for NT | Other Formats
Station Details ID: 015590 Name: ALICE SPRINGS AIRPORT Lat: -23.80 Lon: 133.89 Height: 546.0 m
Data from the previous 72 hours. | See also: Recent months at Alice Springs Airport
Date/Time
CST
Temp
°C
App
Temp
°C
Dew
Point
Rel
Hum
%
Delta-T
°C
Wind Press
QNH
hPa
Press
MSL
hPa
Rain
since 9 am
mm
Dir
 
Spd
km/h
Gust
km/h
Spd
kts
Gust
kts
03/01:30pm 26.0 23.8 5.4 26 10.8 SSW 6 15 3 8 1017.6 1016.5 0.0
03/01:00pm 25.6 22.9 7.3 31 9.9 S 11 15 6 8 1018.1 1016.9 0.0
03/12:30pm 25.4 24.1 11.2 41 8.2 W 9 11 5 6 1018.7 1017.5 0.0
03/12:00pm 24.5 24.1 13.0 48 6.8 WNW 7 13 4 7 1019.3 1018.2 0.0
03/11:30am 23.4 23.4 14.1 56 5.6 NNW 7 11 4 6 1019.5 1018.4 0.0
03/11:00am 22.9 22.9 13.6 55 5.5 WNW 6 13 3 7 1020.1 1018.9 0.0
03/10:30am 21.6 22.6 13.3 59 4.9 CALM 0 0 0 0 1019.7 1018.6 0.0
03/10:00am 20.5 20.7 11.9 57 4.9 SW 2 7 1 4 1020.1 1018.9 0.0
03/09:30am 19.5 19.3 12.9 65 3.8 N 6 7 3 4 1019.7 1018.6 0.0
03/09:00am 18.5 19.1 11.8 65 3.8 CALM 0 0 0 0 1019.6 1018.5 0.0
03/08:30am 18.0 17.2 11.8 67 3.5 WNW 7 9 4 5 1019.2 1018.1 0.0
03/08:00am 17.3 16.2 12.0 71 3.0 SW 9 11 5 6 1018.9 1017.7 0.0
03/07:30am 16.5 17.4 14.1 86 1.4 NNW 2 6 1 3 1018.5 1017.3 0.0
03/07:00am 16.7 16.9 13.2 80 2.0 SW 4 7 2 4 1018.1 1016.9 0.0
03/06:30am 16.3 17.4 13.5 83 1.6 CALM 0 6 0 3 1017.6 1016.5 0.0
03/06:00am 16.1 17.1 13.3 83 1.6 CALM 0 0 0 0 1017.2 1016.0 0.0
03/05:30am 16.2 17.1 12.9 81 1.9 CALM 0 0 0 0 1017.3 1016.1 0.0
03/05:00am 16.8 17.4 12.0 73 2.7 CALM 0 0 0 0 1017.2 1016.0 0.0
03/04:30am 16.5 17.1 12.0 75 2.5 CALM 0 0 0 0 1017.2 1016.0 0.0
03/04:00am 16.8 17.8 13.3 80 2.0 CALM 0 0 0 0 1017.4 1016.2 0.0
03/03:30am 17.0 16.8 13.0 77 2.3 NW 6 7 3 4 1017.2 1016.0 0.0
03/03:00am 16.5 16.0 12.8 79 2.1 NW 7 9 4 5 1017.5 1016.4 0.0
03/02:30am 17.3 17.7 12.6 74 2.7 S 2 7 1 4 1017.4 1016.2 0.0
03/02:00am 17.0 17.6 12.0 72 2.8 CALM 0 0 0 0 1017.5 1016.4 0.0
03/01:30am 17.2 18.3 13.6 79 2.1 CALM 0 0 0 0 1017.9 1016.7 0.0
03/01:00am 17.3 18.1 13.7 79 2.1 E 2 7 1 4 1018.0 1016.8 0.0
03/12:30am 17.7 17.1 13.4 76 2.5 ENE 9 11 5 6 1018.2 1017.0 0.0
03/12:00am 18.5 18.0 12.2 66 3.6 ESE 6 9 3 5 1018.8 1017.6 0.0
 
Date/Time
CST
Temp
°C
App
Temp
°C
Dew
Point
Rel
Hum
%
Delta-T
°C
Wind Press
QNH
hPa
Press
MSL
hPa
Rain
since 9 am
mm
Dir
 
Spd
km/h
Gust
km/h
Spd
kts
Gust
kts
02/11:30pm 18.6 18.1 12.5 67 3.5 SE 7 9 4 5 1019.1 1018.0 0.0
02/11:00pm 19.0 18.5 12.5 66 3.7 ESE 7 9 4 5 1019.2 1018.1 0.0
02/10:30pm 19.3 18.4 12.7 65 3.8 ESE 9 13 5 7 1019.2 1018.1 0.0
02/10:00pm 19.1 18.8 13.2 68 3.4 SSE 7 9 4 5 1019.4 1018.3 0.0
02/09:30pm 19.3 18.3 13.3 68 3.5 E 11 13 6 7 1018.9 1017.7 0.0
02/09:00pm 19.6 18.8 12.9 65 3.9 ESE 9 11 5 6 1019.0 1017.8 0.0
02/08:30pm 20.0 19.2 12.9 63 4.1 SE 9 11 5 6 1019.0 1017.8 0.0
02/08:00pm 19.9 19.3 13.4 66 3.8 ESE 9 11 5 6 1018.9 1017.7 0.0
02/07:30pm 20.3 19.7 13.5 65 4.0 NE 9 11 5 6 1018.4 1017.2 0.0
02/07:00pm 20.2 19.6 13.4 65 4.0 ENE 9 11 5 6 1017.9 1016.7 0.0
02/06:30pm 21.2 20.5 13.2 60 4.7 NE 9 11 5 6 1018.1 1016.9 0.0
02/06:00pm 21.8 20.4 12.3 54 5.5 E 11 13 6 7 1017.5 1016.4 0.0
02/05:30pm 22.7 21.2 11.8 50 6.3 SE 11 13 6 7 1017.4 1016.2 0.0
02/05:00pm 23.1 21.9 11.6 48 6.6 SE 9 13 5 7 1017.2 1016.0 0.0
02/04:30pm 23.2 22.0 11.5 47 6.7 ESE 9 13 5 7 1017.1 1015.9 0.0
02/04:00pm 23.2 21.7 11.8 48 6.6 ESE 11 15 6 8 1016.9 1015.7 0.0
02/03:30pm 23.0 22.3 11.9 49 6.4 E 7 11 4 6 1017.1 1015.9 0.0
02/03:00pm 22.5 21.3 11.7 50 6.2 E 9 13 5 7 1017.2 1016.0 0.0
02/02:30pm 22.4 21.3 11.8 51 6.1 E 9 15 5 8 1017.3 1016.1 0.0
02/02:00pm 21.9 20.6 11.4 51 6.0 ESE 9 15 5 8 1017.9 1016.7 0.0
02/01:30pm 21.5 20.2 11.3 52 5.8 E 9 13 5 7 1018.3 1017.1 0.0
02/01:00pm 20.7 19.2 10.7 52 5.6 E 9 15 5 8 1018.5 1017.3 0.0
02/12:30pm 20.3 18.9 10.8 54 5.3 SE 9 15 5 8 1019.3 1018.2 0.0
02/12:00pm 20.1 18.5 11.4 57 4.9 ENE 11 15 6 8 1019.6 1018.5 0.0
02/11:30am 19.6 17.7 10.4 55 5.1 ESE 11 15 6 8 1020.0 1018.8 0.0
02/11:00am 19.4 17.6 11.0 58 4.7 E 11 17 6 9 1020.4 1019.2 0.0
02/10:30am 19.0 16.6 11.5 61 4.2 ENE 15 20 8 11 1020.5 1019.3 0.0
02/10:00am 18.2 15.0 11.2 63 3.9 NE 19 24 10 13 1020.3 1019.1 0.0
02/09:30am 16.5 14.7 12.0 75 2.5 NE 13 19 7 10 1020.5 1019.3 0.0
02/09:00am 15.8 14.3 12.0 78 2.1 NE 11 15 6 8 1020.2 1019.0 1.0
02/08:30am 14.7 12.9 12.0 84 1.5 NE 13 17 7 9 1019.7 1018.6 1.0
02/08:00am 14.8 13.0 12.1 84 1.5 NE 13 17 7 9 1020.0 1018.8 1.0
02/07:30am 14.3 13.8 12.7 90 0.9 NNW 7 9 4 5 1020.5 1019.3 -
02/07:00am 13.9 13.4 12.1 89 1.0 E 6 9 3 5 1020.2 1019.0 -
02/06:30am 13.9 12.7 11.7 86 1.2 NE 9 13 5 7 1020.2 1019.0 -
02/06:00am 15.0 12.5 11.0 77 2.2 WNW 15 19 8 10 1020.2 1019.0 -
02/05:30am 16.7 14.4 7.6 55 4.7 WSW 9 11 5 6 1018.8 1017.6 -
02/05:00am 16.6 14.7 9.1 61 4.0 SW 9 9 5 5 1018.1 1016.9 -
02/04:30am 16.3 16.5 10.4 68 3.2 CALM 0 0 0 0 1018.2 1017.0 -
02/04:00am 15.8 15.9 11.5 75 2.4 NNE 2 6 1 3 1017.7 1016.6 -
02/03:30am 16.1 14.6 10.4 69 3.1 NE 9 11 5 6 1018.2 1017.0 -
02/03:00am 16.5 15.6 9.4 63 3.8 SE 4 11 2 6 1018.1 1016.9 0.0
02/02:30am 17.2 14.7 6.5 49 5.4 WNW 9 11 5 6 1019.1 1018.0 -
02/02:00am 16.8 15.2 8.2 57 4.5 SSE 6 11 3 6 1018.5 1017.3 -
02/01:30am 17.7 15.5 6.0 46 5.9 SSW 7 9 4 5 1019.1 1018.0 -
02/01:00am 17.3 14.7 5.9 47 5.7 SSW 9 11 5 6 1019.1 1018.0 -
02/12:30am 17.0 14.4 6.0 48 5.5 SSE 9 11 5 6 1018.9 1017.7 -
02/12:00am 17.7 15.7 6.2 47 5.8 SSW 6 11 3 6 1019.2 1018.1 -
 
Date/Time
CST
Temp
°C
App
Temp
°C
Dew
Point
Rel
Hum
%
Delta-T
°C
Wind Press
QNH
hPa
Press
MSL
hPa
Rain
since 9 am
mm
Dir
 
Spd
km/h
Gust
km/h
Spd
kts
Gust
kts
01/11:30pm 17.7 15.2 6.5 48 5.7 S 9 11 5 6 1019.3 1018.2 -
01/11:00pm 18.2 15.7 6.7 47 5.9 SSE 9 9 5 5 1019.3 1018.2 -
01/10:30pm 18.4 15.8 6.2 45 6.2 SSE 9 9 5 5 1019.5 1018.4 -
01/10:00pm 17.9 15.4 6.5 47 5.8 SSE 9 9 5 5 1019.6 1018.5 -
01/09:30pm 19.1 16.6 6.6 44 6.4 SSE 9 13 5 7 1019.7 1018.6 -
01/09:00pm 19.5 15.8 6.2 42 6.8 SE 15 19 8 10 1019.5 1018.4 -
01/08:30pm 19.7 16.5 6.7 42 6.7 SE 13 17 7 9 1019.5 1018.4 -
01/08:00pm 19.9 16.3 6.8 42 6.8 SE 15 20 8 11 1019.4 1018.3 -
01/07:30pm 20.1 16.9 6.8 42 6.9 SSE 13 19 7 10 1019.1 1018.0 -
01/07:00pm 20.1 17.0 7.1 43 6.8 SSE 13 22 7 12 1019.1 1018.0 -
01/06:30pm 20.4 16.9 7.0 41 7.0 S 15 20 8 11 1018.9 1017.7 -
01/06:00pm 20.9 17.3 6.7 39 7.4 SSE 15 20 8 11 1018.8 1017.6 -
01/05:30pm 21.6 17.5 6.1 36 8.0 SSE 17 26 9 14 1018.7 1017.5 -
01/04:30pm 22.9 18.3 5.4 32 9.0 SSE 19 26 10 14 1018.2 1017.0 0.0
01/04:00pm 23.8 19.2 5.5 30 9.5 SSE 19 26 10 14 1018.1 1016.9 0.0
01/03:30pm 25.1 20.2 5.0 27 10.4 SSE 20 26 11 14 1018.1 1016.9 0.0
01/03:00pm 24.9 20.5 4.7 27 10.4 SE 17 24 9 13 1017.7 1016.6 0.0
01/02:30pm 26.0 21.2 4.5 25 11.1 SE 19 28 10 15 1017.9 1016.7 0.0
01/02:00pm 25.8 21.2 3.8 24 11.2 SE 17 28 9 15 1018.4 1017.2 0.0
01/01:30pm 26.1 21.2 4.0 24 11.3 SE 19 28 10 15 1018.3 1017.1 0.0
01/01:00pm 25.8 20.6 3.8 24 11.2 SSE 20 32 11 17 1018.6 1017.4 0.0
01/12:30pm 26.3 20.0 3.7 23 11.5 SE 26 33 14 18 1019.2 1018.1 0.0
01/12:00pm 25.9 20.8 4.3 25 11.1 SE 20 32 11 17 1019.4 1018.3 0.0
01/11:30am 26.0 20.1 5.7 27 10.7 SE 26 35 14 19 1019.9 1018.7 0.0
01/11:00am 25.6 20.2 6.4 29 10.2 SE 24 33 13 18 1020.0 1018.8 0.0
01/10:30am 24.5 19.7 7.4 33 9.2 SSE 22 33 12 18 1020.6 1019.4 0.0
01/10:00am 24.4 19.4 8.0 35 8.9 SE 24 32 13 17 1020.2 1019.0 0.0
01/09:30am 24.1 19.9 8.3 36 8.6 SE 20 30 11 16 1019.9 1018.7 0.0
01/09:00am 23.5 19.9 8.5 38 8.2 SE 17 24 9 13 1019.7 1017.5 0.0
01/08:30am 22.0 20.8 9.5 45 6.9 ESE 6 11 3 6 1019.5 1017.3 0.0
01/08:00am 21.3 20.4 9.2 46 6.6 SW 4 9 2 5 1018.9 1016.7 0.0
01/07:30am 20.2 18.2 8.7 47 6.2 SW 9 11 5 6 1018.5 1016.2 0.0
01/07:00am 20.8 18.8 8.5 45 6.6 SW 9 13 5 7 1018.3 1016.0 0.0
01/06:30am 20.8 18.7 8.3 44 6.7 S 9 9 5 5 1018.2 1015.9 0.0
01/06:00am 20.6 18.1 8.0 44 6.7 SSW 11 13 6 7 1018.0 1015.7 0.0
01/05:30am 19.4 18.0 9.0 51 5.6 ESE 6 6 3 3 1017.1 1014.9 0.0
01/05:00am 20.4 18.1 8.9 47 6.2 SSW 11 13 6 7 1016.9 1014.6 0.0
01/04:30am 20.6 19.1 8.3 45 6.6 SSW 6 11 3 6 1017.0 1014.8 0.0
01/04:00am 19.7 18.0 8.2 47 6.1 WSW 7 9 4 5 1016.9 1014.6 0.0
01/03:30am 19.8 17.7 8.1 46 6.2 WSW 9 9 5 5 1016.7 1014.4 0.0
01/03:00am 20.4 18.9 9.2 48 6.1 WNW 7 9 4 5 1016.6 1014.3 0.0
01/02:30am 21.9 20.7 9.6 45 6.8 NNW 6 7 3 4 1016.7 1014.4 0.0
01/02:00am 22.6 20.5 8.4 40 7.7 NNW 9 9 5 5 1016.8 1014.5 0.0
01/01:30am 22.5 20.5 8.5 40 7.6 WSW 9 11 5 6 1016.9 1014.6 0.0
01/01:00am 21.8 19.9 9.2 44 6.9 W 9 11 5 6 1016.8 1014.5 0.0
01/12:30am 22.2 20.4 9.5 44 7.0 WNW 9 9 5 5 1017.1 1014.9 0.0
01/12:00am 22.1 20.9 9.4 44 7.0 NNW 6 7 3 4 1017.1 1014.9 0.0
 
Date/Time
CST
Temp
°C
App
Temp
°C
Dew
Point
Rel
Hum
%
Delta-T
°C
Wind Press
QNH
hPa
Press
MSL
hPa
Rain
since 9 am
mm
Dir
 
Spd
km/h
Gust
km/h
Spd
kts
Gust
kts
30/11:30pm 23.1 21.3 9.4 41 7.6 NW 9 9 5 5 1017.4 1015.2 0.0
30/11:00pm 23.2 21.3 9.0 40 7.8 WNW 9 11 5 6 1017.3 1015.1 0.0
30/10:30pm 23.1 21.2 9.1 41 7.7 WNW 9 11 5 6 1017.2 1015.0 0.0
30/10:00pm 22.3 20.8 9.0 42 7.3 W 7 11 4 6 1017.3 1015.1 0.0
30/09:30pm 22.4 19.7 9.1 42 7.3 W 13 13 7 7 1017.3 1015.1 0.0
30/09:00pm 23.1 21.3 9.4 41 7.6 W 9 11 5 6 1017.0 1014.8 0.0
30/08:30pm 22.9 21.0 9.1 41 7.6 W 9 11 5 6 1016.7 1014.4 0.0
30/08:00pm 24.0 21.7 9.0 38 8.3 WNW 11 11 6 6 1016.6 1014.3 0.0
30/07:30pm 24.4 22.9 9.3 38 8.4 W 7 9 4 5 1016.2 1013.9 0.0
30/07:00pm 25.3 23.2 9.7 37 8.8 WSW 11 13 6 7 1015.7 1013.5 0.0
30/06:30pm 26.8 24.9 9.0 32 10.0 SSW 9 11 5 6 1015.2 1012.9 0.0
30/06:00pm 28.0 24.1 8.8 30 10.8 SSW 19 28 10 15 1014.9 1012.6 0.0
30/05:30pm 29.8 24.7 7.7 25 12.3 SSW 24 33 13 18 1014.3 1012.0 0.0
30/05:00pm 30.8 26.1 7.8 23 12.9 SSW 22 30 12 16 1013.8 1011.6 0.0
30/04:30pm 33.1 28.3 5.8 18 15.0 WNW 20 26 11 14 1013.3 1011.0 0.0
30/04:00pm 33.3 28.8 6.2 18 15.0 WNW 19 26 10 14 1013.3 1011.0 0.0
30/03:30pm 33.1 28.0 5.8 18 15.0 W 22 30 12 16 1013.2 1010.9 0.0
30/03:00pm 33.1 27.6 5.8 18 15.0 WNW 24 37 13 20 1013.1 1010.8 0.0
30/02:30pm 33.3 28.8 6.2 18 15.0 NW 19 32 10 17 1013.2 1010.9 0.0

Other Formats:

Comma delimited format used in spreadsheet applications
http://www.bom.gov.au/fwo/IDD60801/IDD60801.94326.axf

JavaScript Object Notation format (JSON) in row-major order
http://www.bom.gov.au/fwo/IDD60801/IDD60801.94326.json